sensor_id;sensor_type;location;lat;lon;timestamp;P1;durP1;ratioP1;P2;durP2;ratioP2
15480;SDS011;7842;50.904;6.670;2023-04-03T00:01:23;6.22;;;3.90;;
15480;SDS011;7842;50.904;6.670;2023-04-03T00:03:49;6.50;;;4.05;;
15480;SDS011;7842;50.904;6.670;2023-04-03T00:06:16;5.35;;;3.65;;
15480;SDS011;7842;50.904;6.670;2023-04-03T00:08:42;4.38;;;3.30;;
15480;SDS011;7842;50.904;6.670;2023-04-03T00:11:08;5.83;;;4.00;;
15480;SDS011;7842;50.904;6.670;2023-04-03T00:13:37;4.32;;;3.35;;
15480;SDS011;7842;50.904;6.670;2023-04-03T00:16:03;4.20;;;3.00;;
15480;SDS011;7842;50.904;6.670;2023-04-03T00:18:29;5.10;;;3.17;;
15480;SDS011;7842;50.904;6.670;2023-04-03T00:20:55;5.30;;;3.60;;
15480;SDS011;7842;50.904;6.670;2023-04-03T00:23:21;4.93;;;3.43;;
15480;SDS011;7842;50.904;6.670;2023-04-03T00:25:48;5.68;;;3.88;;
15480;SDS011;7842;50.904;6.670;2023-04-03T00:28:14;4.72;;;3.10;;
15480;SDS011;7842;50.904;6.670;2023-04-03T00:30:40;5.43;;;3.78;;
15480;SDS011;7842;50.904;6.670;2023-04-03T00:33:06;5.20;;;3.50;;
15480;SDS011;7842;50.904;6.670;2023-04-03T00:35:31;4.43;;;3.28;;
15480;SDS011;7842;50.904;6.670;2023-04-03T00:37:58;5.20;;;3.57;;
15480;SDS011;7842;50.904;6.670;2023-04-03T00:40:25;5.82;;;3.75;;
15480;SDS011;7842;50.904;6.670;2023-04-03T00:42:55;5.63;;;4.10;;
15480;SDS011;7842;50.904;6.670;2023-04-03T00:45:32;5.03;;;3.70;;
15480;SDS011;7842;50.904;6.670;2023-04-03T00:48:03;4.38;;;3.80;;
15480;SDS011;7842;50.904;6.670;2023-04-03T00:50:31;5.50;;;4.20;;
15480;SDS011;7842;50.904;6.670;2023-04-03T00:53:00;8.32;;;4.70;;
15480;SDS011;7842;50.904;6.670;2023-04-03T00:55:26;6.50;;;4.55;;
15480;SDS011;7842;50.904;6.670;2023-04-03T00:57:52;7.57;;;5.60;;
15480;SDS011;7842;50.904;6.670;2023-04-03T01:00:19;8.82;;;6.30;;
15480;SDS011;7842;50.904;6.670;2023-04-03T01:02:45;9.80;;;6.30;;
15480;SDS011;7842;50.904;6.670;2023-04-03T01:05:11;11.10;;;6.93;;
15480;SDS011;7842;50.904;6.670;2023-04-03T01:07:40;7.45;;;5.00;;
15480;SDS011;7842;50.904;6.670;2023-04-03T01:10:07;6.18;;;5.00;;
15480;SDS011;7842;50.904;6.670;2023-04-03T01:12:35;6.07;;;4.97;;
15480;SDS011;7842;50.904;6.670;2023-04-03T01:15:07;7.10;;;5.20;;
15480;SDS011;7842;50.904;6.670;2023-04-03T01:17:42;7.38;;;6.05;;
15480;SDS011;7842;50.904;6.670;2023-04-03T01:25:27;9.27;;;6.97;;
15480;SDS011;7842;50.904;6.670;2023-04-03T01:27:53;7.25;;;5.60;;
15480;SDS011;7842;50.904;6.670;2023-04-03T01:30:20;6.10;;;5.32;;
15480;SDS011;7842;50.904;6.670;2023-04-03T01:32:48;6.45;;;5.18;;
15480;SDS011;7842;50.904;6.670;2023-04-03T01:35:14;6.18;;;5.10;;
15480;SDS011;7842;50.904;6.670;2023-04-03T01:37:39;6.43;;;5.18;;
15480;SDS011;7842;50.904;6.670;2023-04-03T01:40:05;6.00;;;5.22;;
15480;SDS011;7842;50.904;6.670;2023-04-03T01:42:32;6.50;;;5.32;;
15480;SDS011;7842;50.904;6.670;2023-04-03T01:44:57;6.67;;;5.10;;
15480;SDS011;7842;50.904;6.670;2023-04-03T01:47:23;5.80;;;5.00;;
15480;SDS011;7842;50.904;6.670;2023-04-03T01:49:48;6.47;;;5.10;;
15480;SDS011;7842;50.904;6.670;2023-04-03T01:52:14;7.13;;;5.50;;
15480;SDS011;7842;50.904;6.670;2023-04-03T01:54:40;6.50;;;5.30;;
15480;SDS011;7842;50.904;6.670;2023-04-03T01:57:05;6.90;;;5.17;;
15480;SDS011;7842;50.904;6.670;2023-04-03T01:59:31;6.77;;;5.40;;
15480;SDS011;7842;50.904;6.670;2023-04-03T02:01:56;6.10;;;5.50;;
15480;SDS011;7842;50.904;6.670;2023-04-03T02:04:22;6.10;;;5.20;;
15480;SDS011;7842;50.904;6.670;2023-04-03T02:06:48;6.85;;;5.80;;
15480;SDS011;7842;50.904;6.670;2023-04-03T02:09:14;8.00;;;5.50;;
15480;SDS011;7842;50.904;6.670;2023-04-03T02:11:39;6.57;;;5.70;;
15480;SDS011;7842;50.904;6.670;2023-04-03T02:14:05;5.53;;;5.00;;
15480;SDS011;7842;50.904;6.670;2023-04-03T02:16:31;8.13;;;5.70;;
15480;SDS011;7842;50.904;6.670;2023-04-03T02:18:56;7.47;;;5.43;;
15480;SDS011;7842;50.904;6.670;2023-04-03T02:21:22;5.88;;;5.28;;
15480;SDS011;7842;50.904;6.670;2023-04-03T02:23:48;6.30;;;5.65;;
15480;SDS011;7842;50.904;6.670;2023-04-03T02:26:15;6.68;;;5.70;;
15480;SDS011;7842;50.904;6.670;2023-04-03T02:28:41;6.57;;;5.70;;
15480;SDS011;7842;50.904;6.670;2023-04-03T02:31:07;8.43;;;6.68;;
15480;SDS011;7842;50.904;6.670;2023-04-03T02:33:34;6.57;;;5.55;;
15480;SDS011;7842;50.904;6.670;2023-04-03T02:36:01;7.32;;;5.80;;
15480;SDS011;7842;50.904;6.670;2023-04-03T02:38:29;6.60;;;6.00;;
15480;SDS011;7842;50.904;6.670;2023-04-03T02:41:05;6.75;;;5.70;;
15480;SDS011;7842;50.904;6.670;2023-04-03T02:43:32;6.18;;;5.55;;
15480;SDS011;7842;50.904;6.670;2023-04-03T02:45:58;6.73;;;6.03;;
15480;SDS011;7842;50.904;6.670;2023-04-03T02:48:24;6.60;;;6.00;;
15480;SDS011;7842;50.904;6.670;2023-04-03T02:50:51;7.05;;;5.93;;
15480;SDS011;7842;50.904;6.670;2023-04-03T02:53:17;7.35;;;5.85;;
15480;SDS011;7842;50.904;6.670;2023-04-03T02:55:43;6.93;;;5.80;;
15480;SDS011;7842;50.904;6.670;2023-04-03T02:58:10;6.32;;;5.60;;
15480;SDS011;7842;50.904;6.670;2023-04-03T03:00:36;7.05;;;5.97;;
15480;SDS011;7842;50.904;6.670;2023-04-03T03:03:02;7.35;;;6.10;;
15480;SDS011;7842;50.904;6.670;2023-04-03T03:05:28;7.67;;;6.13;;
15480;SDS011;7842;50.904;6.670;2023-04-03T03:07:54;8.48;;;6.03;;
15480;SDS011;7842;50.904;6.670;2023-04-03T03:10:19;7.30;;;6.40;;
15480;SDS011;7842;50.904;6.670;2023-04-03T03:12:45;6.45;;;5.85;;
15480;SDS011;7842;50.904;6.670;2023-04-03T03:15:11;7.18;;;6.15;;
15480;SDS011;7842;50.904;6.670;2023-04-03T03:17:37;6.82;;;6.07;;
15480;SDS011;7842;50.904;6.670;2023-04-03T03:20:03;6.82;;;5.70;;
15480;SDS011;7842;50.904;6.670;2023-04-03T03:22:30;7.70;;;6.47;;
15480;SDS011;7842;50.904;6.670;2023-04-03T03:24:56;7.35;;;6.65;;
15480;SDS011;7842;50.904;6.670;2023-04-03T03:27:22;8.00;;;6.65;;
15480;SDS011;7842;50.904;6.670;2023-04-03T03:29:48;7.35;;;6.25;;
15480;SDS011;7842;50.904;6.670;2023-04-03T03:32:14;7.85;;;6.35;;
15480;SDS011;7842;50.904;6.670;2023-04-03T03:34:40;6.18;;;5.57;;
15480;SDS011;7842;50.904;6.670;2023-04-03T03:37:05;6.90;;;6.20;;
15480;SDS011;7842;50.904;6.670;2023-04-03T03:39:31;8.10;;;6.82;;
15480;SDS011;7842;50.904;6.670;2023-04-03T03:41:57;7.20;;;5.72;;
15480;SDS011;7842;50.904;6.670;2023-04-03T03:44:22;6.45;;;5.80;;
15480;SDS011;7842;50.904;6.670;2023-04-03T03:46:48;6.20;;;5.57;;
15480;SDS011;7842;50.904;6.670;2023-04-03T03:49:13;7.00;;;5.38;;
15480;SDS011;7842;50.904;6.670;2023-04-03T03:51:39;5.95;;;5.03;;
15480;SDS011;7842;50.904;6.670;2023-04-03T03:54:05;5.80;;;5.20;;
15480;SDS011;7842;50.904;6.670;2023-04-03T03:56:32;5.30;;;4.80;;
15480;SDS011;7842;50.904;6.670;2023-04-03T03:58:58;7.95;;;5.93;;
15480;SDS011;7842;50.904;6.670;2023-04-03T04:01:24;6.07;;;4.97;;
15480;SDS011;7842;50.904;6.670;2023-04-03T04:03:50;6.97;;;5.20;;
15480;SDS011;7842;50.904;6.670;2023-04-03T04:06:16;6.63;;;5.65;;
15480;SDS011;7842;50.904;6.670;2023-04-03T04:08:42;6.95;;;5.00;;
15480;SDS011;7842;50.904;6.670;2023-04-03T04:11:07;6.63;;;5.88;;
15480;SDS011;7842;50.904;6.670;2023-04-03T04:13:34;7.55;;;5.95;;
15480;SDS011;7842;50.904;6.670;2023-04-03T04:15:59;8.50;;;6.10;;
15480;SDS011;7842;50.904;6.670;2023-04-03T04:18:25;6.32;;;5.72;;
15480;SDS011;7842;50.904;6.670;2023-04-03T04:20:51;7.27;;;5.80;;
15480;SDS011;7842;50.904;6.670;2023-04-03T04:23:17;6.30;;;5.00;;
15480;SDS011;7842;50.904;6.670;2023-04-03T04:25:47;5.95;;;5.10;;
15480;SDS011;7842;50.904;6.670;2023-04-03T04:28:14;7.93;;;5.50;;
15480;SDS011;7842;50.904;6.670;2023-04-03T04:30:40;6.32;;;5.38;;
15480;SDS011;7842;50.904;6.670;2023-04-03T04:33:06;7.03;;;5.20;;
15480;SDS011;7842;50.904;6.670;2023-04-03T04:35:32;8.32;;;5.30;;
15480;SDS011;7842;50.904;6.670;2023-04-03T04:37:58;5.83;;;4.77;;
15480;SDS011;7842;50.904;6.670;2023-04-03T04:40:23;6.37;;;4.87;;
15480;SDS011;7842;50.904;6.670;2023-04-03T04:42:49;6.17;;;5.20;;
15480;SDS011;7842;50.904;6.670;2023-04-03T04:45:15;6.68;;;5.15;;
15480;SDS011;7842;50.904;6.670;2023-04-03T04:47:41;6.15;;;5.20;;
15480;SDS011;7842;50.904;6.670;2023-04-03T04:50:07;7.38;;;5.18;;
15480;SDS011;7842;50.904;6.670;2023-04-03T04:52:33;6.43;;;4.93;;
15480;SDS011;7842;50.904;6.670;2023-04-03T04:54:59;5.45;;;4.93;;
15480;SDS011;7842;50.904;6.670;2023-04-03T04:57:24;5.55;;;4.70;;
15480;SDS011;7842;50.904;6.670;2023-04-03T04:59:50;6.38;;;4.55;;
15480;SDS011;7842;50.904;6.670;2023-04-03T05:02:16;5.77;;;4.73;;
15480;SDS011;7842;50.904;6.670;2023-04-03T05:04:41;5.32;;;4.50;;
15480;SDS011;7842;50.904;6.670;2023-04-03T05:07:07;5.97;;;4.70;;
15480;SDS011;7842;50.904;6.670;2023-04-03T05:09:33;5.73;;;4.50;;
15480;SDS011;7842;50.904;6.670;2023-04-03T05:11:58;5.77;;;4.57;;
15480;SDS011;7842;50.904;6.670;2023-04-03T05:14:24;5.27;;;4.50;;
15480;SDS011;7842;50.904;6.670;2023-04-03T05:16:50;7.50;;;4.90;;
15480;SDS011;7842;50.904;6.670;2023-04-03T05:19:18;6.38;;;4.65;;
15480;SDS011;7842;50.904;6.670;2023-04-03T05:21:45;6.70;;;4.60;;
15480;SDS011;7842;50.904;6.670;2023-04-03T05:24:11;6.10;;;4.90;;
15480;SDS011;7842;50.904;6.670;2023-04-03T05:26:36;6.13;;;5.20;;
15480;SDS011;7842;50.904;6.670;2023-04-03T05:29:02;7.10;;;4.70;;
15480;SDS011;7842;50.904;6.670;2023-04-03T05:31:28;5.57;;;4.57;;
15480;SDS011;7842;50.904;6.670;2023-04-03T05:33:54;4.35;;;3.90;;
15480;SDS011;7842;50.904;6.670;2023-04-03T05:38:55;5.28;;;3.85;;
15480;SDS011;7842;50.904;6.670;2023-04-03T05:41:21;5.65;;;4.50;;
15480;SDS011;7842;50.904;6.670;2023-04-03T05:43:48;6.43;;;3.87;;
15480;SDS011;7842;50.904;6.670;2023-04-03T05:46:17;5.57;;;3.70;;
15480;SDS011;7842;50.904;6.670;2023-04-03T05:48:44;6.00;;;3.97;;
15480;SDS011;7842;50.904;6.670;2023-04-03T05:51:17;4.47;;;3.60;;
15480;SDS011;7842;50.904;6.670;2023-04-03T05:53:44;4.47;;;3.38;;
15480;SDS011;7842;50.904;6.670;2023-04-03T05:56:11;4.55;;;3.38;;
15480;SDS011;7842;50.904;6.670;2023-04-03T05:58:37;4.43;;;3.10;;
15480;SDS011;7842;50.904;6.670;2023-04-03T06:01:03;5.30;;;3.27;;
15480;SDS011;7842;50.904;6.670;2023-04-03T06:03:30;3.70;;;2.80;;
15480;SDS011;7842;50.904;6.670;2023-04-03T06:05:56;5.03;;;3.10;;
15480;SDS011;7842;50.904;6.670;2023-04-03T06:08:24;5.35;;;2.92;;
15480;SDS011;7842;50.904;6.670;2023-04-03T06:10:50;4.20;;;3.20;;
15480;SDS011;7842;50.904;6.670;2023-04-03T06:13:15;3.83;;;2.80;;
15480;SDS011;7842;50.904;6.670;2023-04-03T06:15:41;4.25;;;3.17;;
15480;SDS011;7842;50.904;6.670;2023-04-03T06:18:07;4.78;;;3.22;;
15480;SDS011;7842;50.904;6.670;2023-04-03T06:20:33;4.80;;;2.90;;
15480;SDS011;7842;50.904;6.670;2023-04-03T06:22:58;3.50;;;2.90;;
15480;SDS011;7842;50.904;6.670;2023-04-03T06:25:24;4.15;;;2.90;;
15480;SDS011;7842;50.904;6.670;2023-04-03T06:27:50;4.30;;;2.90;;
15480;SDS011;7842;50.904;6.670;2023-04-03T06:30:16;4.22;;;3.15;;
15480;SDS011;7842;50.904;6.670;2023-04-03T06:32:41;3.67;;;2.80;;
15480;SDS011;7842;50.904;6.670;2023-04-03T06:35:08;5.45;;;3.00;;
15480;SDS011;7842;50.904;6.670;2023-04-03T06:37:34;4.38;;;3.10;;
15480;SDS011;7842;50.904;6.670;2023-04-03T06:39:59;4.13;;;2.70;;
15480;SDS011;7842;50.904;6.670;2023-04-03T06:42:25;4.78;;;2.72;;
15480;SDS011;7842;50.904;6.670;2023-04-03T06:44:51;5.10;;;2.75;;
15480;SDS011;7842;50.904;6.670;2023-04-03T06:47:16;4.55;;;2.92;;
15480;SDS011;7842;50.904;6.670;2023-04-03T06:49:43;5.05;;;2.85;;
15480;SDS011;7842;50.904;6.670;2023-04-03T06:52:09;5.72;;;3.00;;
15480;SDS011;7842;50.904;6.670;2023-04-03T06:54:37;4.57;;;2.90;;
15480;SDS011;7842;50.904;6.670;2023-04-03T06:57:02;4.00;;;2.60;;
15480;SDS011;7842;50.904;6.670;2023-04-03T06:59:28;3.58;;;2.80;;
15480;SDS011;7842;50.904;6.670;2023-04-03T07:01:54;4.47;;;2.85;;
15480;SDS011;7842;50.904;6.670;2023-04-03T07:04:20;4.13;;;2.88;;
15480;SDS011;7842;50.904;6.670;2023-04-03T07:06:46;4.07;;;2.70;;
15480;SDS011;7842;50.904;6.670;2023-04-03T07:09:12;4.15;;;2.83;;
15480;SDS011;7842;50.904;6.670;2023-04-03T07:11:38;4.60;;;2.75;;
15480;SDS011;7842;50.904;6.670;2023-04-03T07:14:04;5.07;;;3.10;;
15480;SDS011;7842;50.904;6.670;2023-04-03T07:16:32;4.65;;;2.90;;
15480;SDS011;7842;50.904;6.670;2023-04-03T07:18:58;4.50;;;2.45;;
15480;SDS011;7842;50.904;6.670;2023-04-03T07:21:25;4.38;;;2.67;;
15480;SDS011;7842;50.904;6.670;2023-04-03T07:23:51;4.35;;;2.70;;
15480;SDS011;7842;50.904;6.670;2023-04-03T07:26:16;3.38;;;2.60;;
15480;SDS011;7842;50.904;6.670;2023-04-03T07:28:42;4.68;;;3.10;;
15480;SDS011;7842;50.904;6.670;2023-04-03T07:31:12;5.25;;;3.10;;
15480;SDS011;7842;50.904;6.670;2023-04-03T07:33:42;5.72;;;3.30;;
15480;SDS011;7842;50.904;6.670;2023-04-03T07:36:14;4.63;;;2.70;;
15480;SDS011;7842;50.904;6.670;2023-04-03T07:38:40;6.40;;;2.83;;
15480;SDS011;7842;50.904;6.670;2023-04-03T07:41:06;5.43;;;2.80;;
15480;SDS011;7842;50.904;6.670;2023-04-03T07:43:35;4.68;;;2.72;;
15480;SDS011;7842;50.904;6.670;2023-04-03T07:46:01;5.45;;;2.70;;
15480;SDS011;7842;50.904;6.670;2023-04-03T07:48:30;6.30;;;3.00;;
15480;SDS011;7842;50.904;6.670;2023-04-03T07:50:59;4.33;;;3.07;;
15480;SDS011;7842;50.904;6.670;2023-04-03T07:53:25;5.50;;;2.83;;
15480;SDS011;7842;50.904;6.670;2023-04-03T07:55:51;4.47;;;2.55;;
15480;SDS011;7842;50.904;6.670;2023-04-03T07:58:20;4.60;;;2.20;;
15480;SDS011;7842;50.904;6.670;2023-04-03T08:00:46;3.70;;;2.27;;
15480;SDS011;7842;50.904;6.670;2023-04-03T08:03:13;4.80;;;2.30;;
15480;SDS011;7842;50.904;6.670;2023-04-03T08:05:41;5.07;;;2.72;;
15480;SDS011;7842;50.904;6.670;2023-04-03T08:08:08;4.30;;;2.38;;
15480;SDS011;7842;50.904;6.670;2023-04-03T08:10:38;4.88;;;2.70;;
15480;SDS011;7842;50.904;6.670;2023-04-03T08:13:04;4.13;;;2.40;;
15480;SDS011;7842;50.904;6.670;2023-04-03T08:15:30;3.75;;;2.60;;
15480;SDS011;7842;50.904;6.670;2023-04-03T08:17:56;5.18;;;2.50;;
15480;SDS011;7842;50.904;6.670;2023-04-03T08:20:23;4.45;;;2.30;;
15480;SDS011;7842;50.904;6.670;2023-04-03T08:22:48;5.60;;;2.13;;
15480;SDS011;7842;50.904;6.670;2023-04-03T08:25:14;3.40;;;2.17;;
15480;SDS011;7842;50.904;6.670;2023-04-03T08:27:40;5.18;;;2.25;;
15480;SDS011;7842;50.904;6.670;2023-04-03T08:30:06;4.10;;;2.10;;
15480;SDS011;7842;50.904;6.670;2023-04-03T08:32:34;6.45;;;2.38;;
15480;SDS011;7842;50.904;6.670;2023-04-03T08:35:00;4.30;;;2.63;;
15480;SDS011;7842;50.904;6.670;2023-04-03T08:37:27;4.85;;;2.40;;
15480;SDS011;7842;50.904;6.670;2023-04-03T08:39:53;3.58;;;2.05;;
15480;SDS011;7842;50.904;6.670;2023-04-03T08:42:36;4.50;;;2.10;;
15480;SDS011;7842;50.904;6.670;2023-04-03T08:45:35;4.70;;;2.13;;
15480;SDS011;7842;50.904;6.670;2023-04-03T08:48:23;3.83;;;2.28;;
15480;SDS011;7842;50.904;6.670;2023-04-03T08:50:55;4.05;;;2.22;;
15480;SDS011;7842;50.904;6.670;2023-04-03T08:53:28;3.28;;;2.17;;
15480;SDS011;7842;50.904;6.670;2023-04-03T08:55:57;3.47;;;1.70;;
15480;SDS011;7842;50.904;6.670;2023-04-03T08:58:26;3.17;;;1.67;;
15480;SDS011;7842;50.904;6.670;2023-04-03T09:03:32;4.22;;;2.00;;
15480;SDS011;7842;50.904;6.670;2023-04-03T09:06:03;5.93;;;1.95;;
15480;SDS011;7842;50.904;6.670;2023-04-03T09:08:33;3.05;;;1.73;;
15480;SDS011;7842;50.904;6.670;2023-04-03T09:19:33;3.93;;;1.70;;
15480;SDS011;7842;50.904;6.670;2023-04-03T09:22:16;3.57;;;1.60;;
15480;SDS011;7842;50.904;6.670;2023-04-03T09:24:47;3.25;;;1.60;;
15480;SDS011;7842;50.904;6.670;2023-04-03T09:27:14;4.43;;;1.88;;
15480;SDS011;7842;50.904;6.670;2023-04-03T09:29:41;3.05;;;1.65;;
15480;SDS011;7842;50.904;6.670;2023-04-03T09:35:01;3.25;;;1.55;;
15480;SDS011;7842;50.904;6.670;2023-04-03T09:37:39;3.47;;;1.60;;
15480;SDS011;7842;50.904;6.670;2023-04-03T09:40:06;3.37;;;1.60;;
15480;SDS011;7842;50.904;6.670;2023-04-03T09:42:55;3.45;;;1.70;;
15480;SDS011;7842;50.904;6.670;2023-04-03T09:45:29;3.28;;;1.63;;
15480;SDS011;7842;50.904;6.670;2023-04-03T09:50:53;3.05;;;1.63;;
15480;SDS011;7842;50.904;6.670;2023-04-03T09:53:40;3.25;;;1.70;;
15480;SDS011;7842;50.904;6.670;2023-04-03T09:58:50;2.63;;;1.50;;
15480;SDS011;7842;50.904;6.670;2023-04-03T10:04:13;2.83;;;1.60;;
15480;SDS011;7842;50.904;6.670;2023-04-03T10:06:40;2.45;;;1.77;;
15480;SDS011;7842;50.904;6.670;2023-04-03T10:12:09;3.00;;;1.80;;
15480;SDS011;7842;50.904;6.670;2023-04-03T10:14:56;2.65;;;1.50;;
15480;SDS011;7842;50.904;6.670;2023-04-03T10:19:59;2.92;;;1.45;;
15480;SDS011;7842;50.904;6.670;2023-04-03T10:22:36;3.72;;;1.50;;
15480;SDS011;7842;50.904;6.670;2023-04-03T10:25:28;3.33;;;1.80;;
15480;SDS011;7842;50.904;6.670;2023-04-03T10:30:30;4.22;;;1.95;;
15480;SDS011;7842;50.904;6.670;2023-04-03T10:38:18;4.40;;;1.90;;
15480;SDS011;7842;50.904;6.670;2023-04-03T10:43:50;2.28;;;1.40;;
15480;SDS011;7842;50.904;6.670;2023-04-03T10:46:35;2.35;;;1.48;;
15480;SDS011;7842;50.904;6.670;2023-04-03T10:49:19;3.17;;;1.30;;
15480;SDS011;7842;50.904;6.670;2023-04-03T10:51:48;2.03;;;1.40;;
15480;SDS011;7842;50.904;6.670;2023-04-03T10:54:26;3.05;;;1.70;;
15480;SDS011;7842;50.904;6.670;2023-04-03T10:57:03;2.90;;;1.30;;
15480;SDS011;7842;50.904;6.670;2023-04-03T11:02:00;2.78;;;1.50;;
15480;SDS011;7842;50.904;6.670;2023-04-03T11:04:27;3.00;;;1.50;;
15480;SDS011;7842;50.904;6.670;2023-04-03T11:07:00;2.50;;;1.35;;
15480;SDS011;7842;50.904;6.670;2023-04-03T11:09:31;2.78;;;1.50;;
15480;SDS011;7842;50.904;6.670;2023-04-03T11:12:04;2.70;;;1.40;;
15480;SDS011;7842;50.904;6.670;2023-04-03T11:14:31;2.03;;;1.20;;
15480;SDS011;7842;50.904;6.670;2023-04-03T11:17:11;2.10;;;1.20;;
15480;SDS011;7842;50.904;6.670;2023-04-03T11:22:28;1.83;;;1.20;;
15480;SDS011;7842;50.904;6.670;2023-04-03T11:25:03;2.28;;;1.50;;
15480;SDS011;7842;50.904;6.670;2023-04-03T11:27:32;3.63;;;1.40;;
15480;SDS011;7842;50.904;6.670;2023-04-03T11:29:59;3.38;;;1.60;;
15480;SDS011;7842;50.904;6.670;2023-04-03T11:35:02;2.92;;;1.30;;
15480;SDS011;7842;50.904;6.670;2023-04-03T11:37:34;2.40;;;1.30;;
15480;SDS011;7842;50.904;6.670;2023-04-03T11:40:02;2.47;;;1.20;;
15480;SDS011;7842;50.904;6.670;2023-04-03T11:42:47;2.38;;;1.17;;
15480;SDS011;7842;50.904;6.670;2023-04-03T11:48:52;2.28;;;1.10;;
15480;SDS011;7842;50.904;6.670;2023-04-03T11:50:59;2.15;;;1.30;;
15480;SDS011;7842;50.904;6.670;2023-04-03T11:56:27;2.03;;;1.10;;
15480;SDS011;7842;50.904;6.670;2023-04-03T12:01:46;2.30;;;1.23;;
15480;SDS011;7842;50.904;6.670;2023-04-03T12:04:14;1.77;;;1.10;;
15480;SDS011;7842;50.904;6.670;2023-04-03T12:06:43;1.52;;;1.10;;
15480;SDS011;7842;50.904;6.670;2023-04-03T12:09:33;2.53;;;1.20;;
15480;SDS011;7842;50.904;6.670;2023-04-03T12:12:00;1.48;;;0.98;;
15480;SDS011;7842;50.904;6.670;2023-04-03T12:14:27;2.75;;;1.35;;
15480;SDS011;7842;50.904;6.670;2023-04-03T12:16:54;2.50;;;1.10;;
15480;SDS011;7842;50.904;6.670;2023-04-03T12:24:35;2.72;;;1.10;;
15480;SDS011;7842;50.904;6.670;2023-04-03T12:29:52;2.00;;;1.23;;
15480;SDS011;7842;50.904;6.670;2023-04-03T12:38:20;2.63;;;1.27;;
15480;SDS011;7842;50.904;6.670;2023-04-03T12:40:31;1.65;;;1.00;;
15480;SDS011;7842;50.904;6.670;2023-04-03T12:46:18;2.00;;;1.30;;
15480;SDS011;7842;50.904;6.670;2023-04-03T12:48:47;3.15;;;1.30;;
15480;SDS011;7842;50.904;6.670;2023-04-03T12:51:14;2.83;;;1.30;;
15480;SDS011;7842;50.904;6.670;2023-04-03T12:53:41;4.00;;;1.80;;
15480;SDS011;7842;50.904;6.670;2023-04-03T12:56:27;4.25;;;1.75;;
15480;SDS011;7842;50.904;6.670;2023-04-03T13:02:01;2.25;;;1.25;;
15480;SDS011;7842;50.904;6.670;2023-04-03T13:04:27;1.90;;;1.17;;
15480;SDS011;7842;50.904;6.670;2023-04-03T13:06:54;1.83;;;1.20;;
15480;SDS011;7842;50.904;6.670;2023-04-03T13:09:30;1.90;;;1.30;;
15480;SDS011;7842;50.904;6.670;2023-04-03T13:11:58;1.55;;;1.10;;
15480;SDS011;7842;50.904;6.670;2023-04-03T13:14:26;2.70;;;1.27;;
15480;SDS011;7842;50.904;6.670;2023-04-03T13:16:57;2.85;;;1.27;;
15480;SDS011;7842;50.904;6.670;2023-04-03T13:19:25;2.67;;;1.02;;
15480;SDS011;7842;50.904;6.670;2023-04-03T13:21:59;1.55;;;1.10;;
15480;SDS011;7842;50.904;6.670;2023-04-03T13:24:26;2.58;;;1.20;;
15480;SDS011;7842;50.904;6.670;2023-04-03T13:26:55;2.63;;;1.50;;
15480;SDS011;7842;50.904;6.670;2023-04-03T13:29:23;2.50;;;1.15;;
15480;SDS011;7842;50.904;6.670;2023-04-03T13:31:52;2.35;;;1.10;;
15480;SDS011;7842;50.904;6.670;2023-04-03T13:34:19;1.70;;;1.00;;
15480;SDS011;7842;50.904;6.670;2023-04-03T13:41:48;2.70;;;1.20;;
15480;SDS011;7842;50.904;6.670;2023-04-03T13:46:51;2.83;;;1.00;;
15480;SDS011;7842;50.904;6.670;2023-04-03T13:51:56;1.92;;;1.08;;
15480;SDS011;7842;50.904;6.670;2023-04-03T13:54:23;2.43;;;1.20;;
15480;SDS011;7842;50.904;6.670;2023-04-03T13:56:53;2.10;;;1.03;;
15480;SDS011;7842;50.904;6.670;2023-04-03T13:59:22;1.60;;;1.30;;
15480;SDS011;7842;50.904;6.670;2023-04-03T14:04:23;2.47;;;1.05;;
15480;SDS011;7842;50.904;6.670;2023-04-03T14:06:52;2.05;;;1.20;;
15480;SDS011;7842;50.904;6.670;2023-04-03T14:09:19;2.03;;;1.10;;
15480;SDS011;7842;50.904;6.670;2023-04-03T14:11:47;2.50;;;1.13;;
15480;SDS011;7842;50.904;6.670;2023-04-03T14:14:15;2.00;;;1.20;;
15480;SDS011;7842;50.904;6.670;2023-04-03T14:16:46;2.25;;;1.20;;
15480;SDS011;7842;50.904;6.670;2023-04-03T14:19:34;3.03;;;1.13;;
15480;SDS011;7842;50.904;6.670;2023-04-03T14:22:03;2.60;;;1.30;;
15480;SDS011;7842;50.904;6.670;2023-04-03T14:24:53;2.60;;;1.23;;
15480;SDS011;7842;50.904;6.670;2023-04-03T14:27:20;1.90;;;1.30;;
15480;SDS011;7842;50.904;6.670;2023-04-03T14:29:53;2.40;;;1.17;;
15480;SDS011;7842;50.904;6.670;2023-04-03T14:32:22;2.40;;;1.30;;
15480;SDS011;7842;50.904;6.670;2023-04-03T14:34:49;2.63;;;1.27;;
15480;SDS011;7842;50.904;6.670;2023-04-03T14:37:17;2.42;;;1.25;;
15480;SDS011;7842;50.904;6.670;2023-04-03T14:39:45;2.00;;;1.30;;
15480;SDS011;7842;50.904;6.670;2023-04-03T14:42:12;1.88;;;1.20;;
15480;SDS011;7842;50.904;6.670;2023-04-03T14:44:41;2.72;;;1.40;;
15480;SDS011;7842;50.904;6.670;2023-04-03T14:47:14;2.45;;;1.45;;
15480;SDS011;7842;50.904;6.670;2023-04-03T14:49:42;2.50;;;1.65;;
15480;SDS011;7842;50.904;6.670;2023-04-03T14:52:30;2.67;;;1.38;;
15480;SDS011;7842;50.904;6.670;2023-04-03T14:54:58;1.88;;;1.23;;
15480;SDS011;7842;50.904;6.670;2023-04-03T14:57:25;2.80;;;1.30;;
15480;SDS011;7842;50.904;6.670;2023-04-03T14:59:53;2.00;;;1.23;;
15480;SDS011;7842;50.904;6.670;2023-04-03T15:02:27;2.58;;;1.30;;
15480;SDS011;7842;50.904;6.670;2023-04-03T15:05:06;2.85;;;1.35;;
15480;SDS011;7842;50.904;6.670;2023-04-03T15:07:38;2.75;;;1.50;;
15480;SDS011;7842;50.904;6.670;2023-04-03T15:10:18;2.22;;;1.30;;
15480;SDS011;7842;50.904;6.670;2023-04-03T15:12:44;3.10;;;1.30;;
15480;SDS011;7842;50.904;6.670;2023-04-03T15:15:11;2.05;;;1.50;;
15480;SDS011;7842;50.904;6.670;2023-04-03T15:17:37;2.10;;;1.35;;
15480;SDS011;7842;50.904;6.670;2023-04-03T15:20:06;2.17;;;1.43;;
15480;SDS011;7842;50.904;6.670;2023-04-03T15:22:38;2.38;;;1.52;;
15480;SDS011;7842;50.904;6.670;2023-04-03T15:25:03;2.30;;;1.30;;
15480;SDS011;7842;50.904;6.670;2023-04-03T15:27:30;3.00;;;1.58;;
15480;SDS011;7842;50.904;6.670;2023-04-03T15:29:55;2.83;;;1.40;;
15480;SDS011;7842;50.904;6.670;2023-04-03T15:32:21;3.60;;;1.67;;
15480;SDS011;7842;50.904;6.670;2023-04-03T15:34:47;2.00;;;1.50;;
15480;SDS011;7842;50.904;6.670;2023-04-03T15:37:14;2.75;;;1.30;;
15480;SDS011;7842;50.904;6.670;2023-04-03T15:39:40;2.85;;;1.50;;
15480;SDS011;7842;50.904;6.670;2023-04-03T15:42:06;3.08;;;1.50;;
15480;SDS011;7842;50.904;6.670;2023-04-03T15:44:32;4.10;;;1.50;;
15480;SDS011;7842;50.904;6.670;2023-04-03T15:46:59;3.03;;;1.58;;
15480;SDS011;7842;50.904;6.670;2023-04-03T15:49:26;3.43;;;1.40;;
15480;SDS011;7842;50.904;6.670;2023-04-03T15:51:52;1.92;;;1.38;;
15480;SDS011;7842;50.904;6.670;2023-04-03T15:54:18;2.65;;;1.25;;
15480;SDS011;7842;50.904;6.670;2023-04-03T15:56:43;1.85;;;1.30;;
15480;SDS011;7842;50.904;6.670;2023-04-03T15:59:09;2.50;;;1.38;;
15480;SDS011;7842;50.904;6.670;2023-04-03T16:01:36;4.18;;;1.50;;
15480;SDS011;7842;50.904;6.670;2023-04-03T16:04:03;2.70;;;1.43;;
15480;SDS011;7842;50.904;6.670;2023-04-03T16:06:30;2.60;;;1.63;;
15480;SDS011;7842;50.904;6.670;2023-04-03T16:08:56;2.60;;;1.42;;
15480;SDS011;7842;50.904;6.670;2023-04-03T16:11:23;3.40;;;1.80;;
15480;SDS011;7842;50.904;6.670;2023-04-03T16:13:51;2.23;;;1.50;;
15480;SDS011;7842;50.904;6.670;2023-04-03T16:16:16;2.27;;;1.37;;
15480;SDS011;7842;50.904;6.670;2023-04-03T16:18:42;2.47;;;1.38;;
15480;SDS011;7842;50.904;6.670;2023-04-03T16:21:08;2.63;;;1.58;;
15480;SDS011;7842;50.904;6.670;2023-04-03T16:23:34;3.55;;;1.42;;
15480;SDS011;7842;50.904;6.670;2023-04-03T16:26:02;3.53;;;1.80;;
15480;SDS011;7842;50.904;6.670;2023-04-03T16:28:28;3.03;;;1.50;;
15480;SDS011;7842;50.904;6.670;2023-04-03T16:30:54;2.55;;;1.60;;
15480;SDS011;7842;50.904;6.670;2023-04-03T16:33:19;3.60;;;1.60;;
15480;SDS011;7842;50.904;6.670;2023-04-03T16:35:47;3.92;;;1.40;;
15480;SDS011;7842;50.904;6.670;2023-04-03T16:38:13;3.45;;;1.30;;
15480;SDS011;7842;50.904;6.670;2023-04-03T16:40:40;3.47;;;1.75;;
15480;SDS011;7842;50.904;6.670;2023-04-03T16:43:06;3.03;;;1.40;;